Time;durP1;ratioP1;P1;durP2;ratioP2;P2;SDS_P1;SDS_P2;PMS_P1;PMS_P2;Temp;Humidity;BMP_temperature;BMP_pressure;BME280_temperature;BME280_humidity;BME280_pressure;Samples;Min_cycle;Max_cycle;Signal;HPM_P1;HPM_P2
2024/01/17 00:02:32;;;;;;;11.70;4.53;;;;;;;-2.04;64.87;99233.44;10292073;28;20782;-61
2024/01/17 00:07:34;;;;;;;11.95;4.38;;;;;;;-2.03;64.83;99224.59;10294998;28;20435;-61
2024/01/17 00:12:35;;;;;;;13.05;4.95;;;;;;;-2.02;64.74;99232.34;10292297;28;20144;-60
2024/01/17 00:17:37;;;;;;;14.13;5.30;;;;;;;-2.05;64.68;99208.94;10292009;28;20047;-60
2024/01/17 00:22:38;;;;;;;14.18;5.32;;;;;;;-2.11;65.36;99198.03;10294754;28;20146;-60
2024/01/17 00:27:40;;;;;;;15.68;4.63;;;;;;;-2.13;65.18;99182.38;10289877;28;20057;-60
2024/01/17 00:32:41;;;;;;;11.00;5.45;;;;;;;-2.14;64.98;99182.50;10294920;28;20057;-61
2024/01/17 00:37:43;;;;;;;11.70;4.93;;;;;;;-2.14;65.15;99175.44;10291046;28;20054;-60
2024/01/17 00:42:44;;;;;;;12.15;4.57;;;;;;;-2.08;64.59;99174.09;10291173;28;20105;-60
2024/01/17 00:47:46;;;;;;;12.85;4.55;;;;;;;-2.09;64.93;99167.19;10294816;28;20060;-60
2024/01/17 00:52:47;;;;;;;9.48;4.75;;;;;;;-2.02;65.26;99155.19;10302152;28;20106;-59
2024/01/17 00:57:49;;;;;;;13.85;4.78;;;;;;;-1.96;64.63;99135.41;10296632;28;20707;-60
2024/01/17 01:02:51;;;;;;;21.65;5.35;;;;;;;-1.94;65.28;99121.16;10303175;28;20407;-60
2024/01/17 01:07:53;;;;;;;14.40;4.45;;;;;;;-1.94;65.14;99120.31;10303426;28;20062;-59
2024/01/17 01:12:54;;;;;;;14.38;5.10;;;;;;;-2.02;65.19;99113.06;10304389;28;20489;-60
2024/01/17 01:17:56;;;;;;;11.50;4.53;;;;;;;-1.93;65.03;99124.63;10300017;28;20051;-59
2024/01/17 01:22:57;;;;;;;9.60;4.82;;;;;;;-1.90;64.86;99108.56;10298262;28;20063;-61
2024/01/17 01:27:59;;;;;;;19.67;5.70;;;;;;;-1.89;64.85;99097.91;10301485;28;20079;-59
2024/01/17 01:33:00;;;;;;;15.07;5.28;;;;;;;-1.90;64.88;99109.41;10298849;28;20058;-61
2024/01/17 01:38:02;;;;;;;9.90;5.05;;;;;;;-1.89;65.00;99100.53;10297531;28;20051;-59
2024/01/17 01:43:20;;;;;;;15.50;5.53;;;;;;;-1.92;65.33;99113.13;10301120;28;20054;-60
2024/01/17 01:48:21;;;;;;;13.73;4.95;;;;;;;-1.93;65.14;99101.78;10295997;28;20046;-60
2024/01/17 01:53:24;;;;;;;11.07;4.53;;;;;;;-1.94;65.24;99096.63;10293503;28;20137;-59
2024/01/17 01:58:28;;;;;;;17.45;5.38;;;;;;;-2.03;65.31;99095.59;10300679;28;20133;-59
2024/01/17 02:03:30;;;;;;;11.82;4.90;;;;;;;-2.15;66.01;99075.53;10298101;28;20051;-59
2024/01/17 02:08:32;;;;;;;11.00;5.03;;;;;;;-2.13;65.83;99068.34;10299461;28;20445;-60
2024/01/17 02:13:34;;;;;;;10.65;3.58;;;;;;;-2.16;65.79;99055.44;10301992;28;20061;-59
2024/01/17 02:18:35;;;;;;;9.70;4.63;;;;;;;-2.18;65.89;99046.84;10282162;28;20240;-59
2024/01/17 02:23:37;;;;;;;14.52;5.03;;;;;;;-2.20;65.64;99039.06;10293126;28;20161;-59
2024/01/17 02:28:38;;;;;;;16.65;7.80;;;;;;;-2.25;65.24;99025.44;10295313;28;20064;-60
2024/01/17 02:33:40;;;;;;;10.32;5.20;;;;;;;-2.38;65.73;99009.84;10292502;28;20049;-59
2024/01/17 02:38:42;;;;;;;9.93;4.28;;;;;;;-2.35;65.83;99003.50;10294789;28;20046;-59
2024/01/17 02:43:44;;;;;;;13.27;4.28;;;;;;;-2.47;65.93;98997.44;10294419;28;20061;-58
2024/01/17 02:48:45;;;;;;;12.80;4.75;;;;;;;-2.57;66.37;98988.66;10292261;28;20129;-58
2024/01/17 02:53:47;;;;;;;12.60;4.88;;;;;;;-2.57;66.24;98983.38;10292618;28;20065;-59
2024/01/17 02:58:48;;;;;;;10.93;4.60;;;;;;;-2.55;66.51;98965.69;10292914;28;20046;-59
2024/01/17 03:03:50;;;;;;;10.35;4.57;;;;;;;-2.53;66.43;98958.50;10292034;28;20053;-59
2024/01/17 03:08:51;;;;;;;13.70;5.32;;;;;;;-2.39;65.95;98947.66;10291346;28;20051;-59
2024/01/17 03:13:52;;;;;;;12.35;4.53;;;;;;;-2.38;66.00;98943.25;10289055;28;20042;-59
2024/01/17 03:18:54;;;;;;;16.27;5.78;;;;;;;-2.48;66.33;98933.47;10274692;28;20070;-59
2024/01/17 03:23:58;;;;;;;18.08;6.05;;;;;;;-2.48;66.48;98932.66;10290863;28;20062;-59
2024/01/17 03:28:59;;;;;;;16.05;6.45;;;;;;;-2.46;66.41;98913.13;10288180;28;20051;-59
2024/01/17 03:34:01;;;;;;;14.40;5.18;;;;;;;-2.48;66.81;98906.34;10279185;28;20058;-60
2024/01/17 03:39:04;;;;;;;14.88;5.55;;;;;;;-2.46;66.64;98897.34;10291110;28;20043;-59
2024/01/17 03:44:06;;;;;;;13.93;5.13;;;;;;;-2.43;66.69;98891.00;10295430;28;20141;-60
2024/01/17 03:49:08;;;;;;;15.15;4.93;;;;;;;-2.40;66.44;98881.03;10295534;28;20052;-60
2024/01/17 03:54:09;;;;;;;14.35;5.22;;;;;;;-2.44;66.83;98873.56;10298080;28;20050;-62
2024/01/17 03:59:11;;;;;;;12.65;4.68;;;;;;;-2.43;66.57;98864.69;10291792;28;20054;-61
2024/01/17 04:04:12;;;;;;;8.65;3.92;;;;;;;-2.43;66.18;98854.16;10294128;28;20142;-61
2024/01/17 04:09:14;;;;;;;10.93;3.75;;;;;;;-2.44;66.24;98845.44;10294551;28;20050;-60
2024/01/17 04:14:16;;;;;;;10.07;4.32;;;;;;;-2.42;66.35;98840.06;10295449;28;20084;-61
2024/01/17 04:19:17;;;;;;;10.93;4.55;;;;;;;-2.45;66.29;98824.53;10291679;28;20380;-60
2024/01/17 04:24:18;;;;;;;15.80;4.38;;;;;;;-2.47;66.21;98808.88;10292011;28;20563;-59
2024/01/17 04:29:20;;;;;;;11.48;4.95;;;;;;;-2.60;66.28;98801.19;10292623;28;20396;-60
2024/01/17 04:34:21;;;;;;;12.68;4.47;;;;;;;-2.57;66.46;98791.38;10296185;28;20051;-59
2024/01/17 04:39:23;;;;;;;15.13;5.00;;;;;;;-2.55;65.89;98784.19;10289301;28;20095;-59
2024/01/17 04:44:24;;;;;;;8.15;4.63;;;;;;;-2.50;66.36;98755.69;10292519;28;20057;-60
2024/01/17 04:49:27;;;;;;;14.45;4.97;;;;;;;-2.46;66.42;98750.03;10292560;28;20039;-60
2024/01/17 04:54:30;;;;;;;15.00;5.63;;;;;;;-2.44;66.24;98742.84;10287231;28;20059;-59
2024/01/17 04:59:32;;;;;;;12.50;4.97;;;;;;;-2.39;66.43;98737.16;10294601;28;20050;-59
2024/01/17 05:04:34;;;;;;;10.27;4.25;;;;;;;-2.31;66.33;98713.66;10288875;28;20078;-59
2024/01/17 05:09:35;;;;;;;13.30;5.25;;;;;;;-2.22;66.32;98698.88;10289092;28;20132;-59
2024/01/17 05:14:37;;;;;;;13.25;5.38;;;;;;;-2.15;66.49;98688.59;10289098;28;20086;-60
2024/01/17 05:19:39;;;;;;;15.63;6.63;;;;;;;-2.18;66.72;98678.38;10289443;28;20135;-60
2024/01/17 05:24:41;;;;;;;16.42;5.40;;;;;;;-2.08;66.51;98664.25;10291941;28;20133;-60
2024/01/17 05:29:43;;;;;;;15.85;5.68;;;;;;;-2.00;66.33;98656.47;10290003;28;20056;-59
2024/01/17 05:34:46;;;;;;;21.08;7.35;;;;;;;-1.88;66.47;98638.75;10295454;28;20121;-59
2024/01/17 05:39:47;;;;;;;14.93;5.10;;;;;;;-1.82;66.24;98619.78;10301272;28;20110;-59
2024/01/17 05:44:49;;;;;;;12.70;4.15;;;;;;;-1.68;66.24;98615.88;10293093;28;20524;-60
2024/01/17 05:49:50;;;;;;;13.35;6.25;;;;;;;-1.58;66.43;98607.94;10293275;28;20401;-60
2024/01/17 05:54:52;;;;;;;12.32;4.38;;;;;;;-1.57;66.83;98601.72;10298735;28;20129;-60
2024/01/17 05:59:53;;;;;;;12.80;5.85;;;;;;;-1.52;66.63;98591.59;10297188;28;20050;-59
2024/01/17 06:04:55;;;;;;;17.30;5.78;;;;;;;-1.38;66.60;98581.53;10298529;28;20050;-60
2024/01/17 06:09:56;;;;;;;15.75;5.60;;;;;;;-1.30;66.06;98571.13;10303636;28;20054;-59
2024/01/17 06:14:58;;;;;;;17.17;5.90;;;;;;;-1.38;66.35;98560.47;10298496;28;20489;-59
2024/01/17 06:19:59;;;;;;;8.13;4.40;;;;;;;-1.36;67.03;98554.09;10296922;28;20055;-60
2024/01/17 06:25:01;;;;;;;12.85;5.07;;;;;;;-1.31;66.82;98535.19;10293628;28;20146;-60
2024/01/17 06:30:03;;;;;;;15.02;5.20;;;;;;;-1.18;66.52;98533.06;10295436;28;20061;-60
2024/01/17 06:35:04;;;;;;;12.13;4.32;;;;;;;-1.04;65.86;98522.03;10299542;28;20146;-60
2024/01/17 06:40:08;;;;;;;14.95;5.55;;;;;;;-0.93;65.77;98515.69;10298232;28;20391;-60
2024/01/17 06:45:10;;;;;;;16.02;5.85;;;;;;;-0.92;66.26;98517.38;10293838;28;20058;-60
2024/01/17 06:50:13;;;;;;;12.50;5.40;;;;;;;-0.91;66.24;98520.84;10293670;28;20133;-60
2024/01/17 06:55:15;;;;;;;12.77;4.85;;;;;;;-0.90;65.79;98517.22;10330484;23;20038;-88
2024/01/17 07:00:20;;;;;;;11.80;5.05;;;;;;;-0.80;65.46;98502.16;10325305;22;20135;-69
2024/01/17 07:05:22;;;;;;;10.55;4.68;;;;;;;-0.85;65.75;98492.06;10272343;28;20055;-67
2024/01/17 07:10:23;;;;;;;13.93;4.47;;;;;;;-0.86;65.46;98485.13;10274016;28;20067;-68
2024/01/17 07:15:25;;;;;;;12.23;4.75;;;;;;;-0.79;65.96;98474.78;10267766;28;20105;-68
2024/01/17 07:20:26;;;;;;;15.65;5.35;;;;;;;-0.63;65.59;98466.22;10266773;28;20050;-69
2024/01/17 07:25:28;;;;;;;15.95;6.03;;;;;;;-0.48;65.45;98450.66;10270751;28;20063;-67
2024/01/17 07:30:29;;;;;;;16.80;5.15;;;;;;;-0.47;64.87;98433.88;10270763;28;20133;-67
2024/01/17 07:35:31;;;;;;;19.75;5.65;;;;;;;-0.39;65.19;98433.94;10269438;28;20076;-67
2024/01/17 07:40:32;;;;;;;18.90;5.07;;;;;;;-0.30;64.59;98430.34;10264082;28;20319;-68
2024/01/17 07:45:34;;;;;;;12.18;5.57;;;;;;;-0.12;64.68;98414.47;10269320;28;20054;-68
2024/01/17 07:50:35;;;;;;;12.05;5.90;;;;;;;0.04;65.00;98413.75;10269912;28;20414;-68
2024/01/17 07:55:37;;;;;;;12.25;5.40;;;;;;;0.17;64.40;98390.34;10274672;28;20050;-68
2024/01/17 08:00:38;;;;;;;13.10;5.82;;;;;;;0.31;64.30;98382.81;10271504;28;20055;-66
2024/01/17 08:05:40;;;;;;;13.93;5.85;;;;;;;0.42;64.09;98364.03;10269785;28;20058;-62
2024/01/17 08:10:42;;;;;;;12.15;5.68;;;;;;;0.46;64.31;98353.97;10273046;28;20090;-62
2024/01/17 08:15:43;;;;;;;10.63;5.35;;;;;;;0.62;64.17;98338.16;10276083;28;20065;-67
2024/01/17 08:20:46;;;;;;;18.08;6.55;;;;;;;0.73;63.67;98331.72;10274817;28;20063;-63
2024/01/17 08:25:47;;;;;;;12.40;5.18;;;;;;;0.83;64.02;98315.69;10278151;28;20061;-62
2024/01/17 08:30:49;;;;;;;12.48;5.90;;;;;;;0.71;63.90;98309.88;10277299;28;20051;-62
2024/01/17 08:35:51;;;;;;;13.57;5.68;;;;;;;0.57;64.09;98299.00;10272976;28;20520;-64
2024/01/17 08:40:52;;;;;;;12.40;5.82;;;;;;;0.69;63.96;98293.38;10272562;28;20046;-63
2024/01/17 08:45:54;;;;;;;14.70;6.35;;;;;;;0.92;64.37;98286.44;10274778;28;20066;-61
2024/01/17 08:50:56;;;;;;;15.52;6.40;;;;;;;1.07;63.60;98276.03;10274383;28;20051;-62
2024/01/17 08:56:00;;;;;;;11.40;5.78;;;;;;;1.09;63.51;98267.94;10275869;28;20125;-61
2024/01/17 09:01:02;;;;;;;14.98;5.57;;;;;;;1.02;63.56;98254.53;10274597;28;20594;-62
2024/01/17 09:06:04;;;;;;;12.85;6.45;;;;;;;1.33;62.95;98240.59;10275510;28;20158;-63
2024/01/17 09:11:08;;;;;;;13.63;6.25;;;;;;;1.58;62.53;98241.34;10282065;28;20418;-62
2024/01/17 09:16:09;;;;;;;16.10;6.43;;;;;;;1.63;62.67;98217.00;10282909;28;20469;-62
2024/01/17 09:21:11;;;;;;;14.73;6.47;;;;;;;1.45;62.82;98209.28;10280213;28;20054;-62
2024/01/17 09:26:12;;;;;;;17.88;7.05;;;;;;;1.59;62.80;98195.34;10285981;28;20350;-56
2024/01/17 09:31:14;;;;;;;15.00;6.53;;;;;;;1.63;63.36;98180.75;10279485;28;20039;-68
2024/01/17 09:36:15;;;;;;;13.80;6.07;;;;;;;1.77;62.54;98169.41;10280670;28;20682;-62
2024/01/17 09:41:17;;;;;;;15.15;7.07;;;;;;;1.65;62.88;98170.00;10281096;28;20070;-65
2024/01/17 09:46:19;;;;;;;17.77;7.20;;;;;;;1.73;63.05;98164.66;10289471;28;20057;-62
2024/01/17 09:51:23;;;;;;;16.50;7.38;;;;;;;1.84;62.55;98166.06;10283182;28;20051;-65
2024/01/17 09:56:27;;;;;;;18.35;7.20;;;;;;;1.94;62.33;98151.63;10286055;28;20050;-61
2024/01/17 10:01:30;;;;;;;12.65;6.22;;;;;;;2.01;62.80;98137.66;10286046;28;20444;-65
2024/01/17 10:06:33;;;;;;;15.98;6.45;;;;;;;2.04;63.11;98122.25;10285742;28;20132;-63
2024/01/17 10:11:35;;;;;;;11.50;7.13;;;;;;;1.79;63.90;98109.16;10283939;28;20501;-63
2024/01/17 10:16:36;;;;;;;15.60;7.80;;;;;;;1.87;63.27;98091.56;10285686;28;20525;-64
2024/01/17 10:21:39;;;;;;;19.40;8.38;;;;;;;1.62;64.24;98083.78;10285452;28;20060;-62
2024/01/17 10:26:42;;;;;;;16.60;6.75;;;;;;;1.70;64.54;98061.69;10281314;28;20043;-67
2024/01/17 10:31:44;;;;;;;18.90;8.45;;;;;;;1.76;64.18;98048.59;10273763;28;20135;-69
2024/01/17 10:36:46;;;;;;;18.27;7.65;;;;;;;1.99;63.39;98034.50;10275213;28;20497;-69
2024/01/17 10:41:54;;;;;;;17.90;8.48;;;;;;;1.90;64.20;98023.16;10281788;28;20461;-67
2024/01/17 10:46:55;;;;;;;;;;;;;;;1.98;64.34;98006.38;10281918;28;20116;-61
2024/01/17 10:52:02;;;;;;;16.65;8.27;;;;;;;2.08;63.56;97999.00;10283470;28;19973;-62
2024/01/17 10:57:09;;;;;;;19.08;8.02;;;;;;;2.17;63.58;97989.13;10288413;28;20651;-68
2024/01/17 11:02:17;;;;;;;17.23;7.60;;;;;;;2.29;63.58;97973.59;10302877;28;20103;-73
2024/01/17 11:07:20;;;;;;;17.48;8.60;;;;;;;2.15;64.28;97962.00;10292159;28;20078;-73
2024/01/17 11:12:21;;;;;;;14.77;6.97;;;;;;;2.05;64.42;97954.31;10284990;28;20125;-70
2024/01/17 11:17:25;;;;;;;17.33;7.78;;;;;;;2.12;64.74;97938.50;10284477;28;20241;-68
2024/01/17 11:22:37;;;;;;;15.85;7.35;;;;;;;1.88;64.82;97926.34;10284239;28;20031;-74
2024/01/17 11:28:14;;;;;;;15.48;7.93;;;;;;;1.64;65.60;97932.66;10285622;28;20051;-72
2024/01/17 11:33:16;;;;;;;19.67;7.82;;;;;;;1.66;66.16;97926.22;10276002;28;20506;-66
2024/01/17 11:38:23;;;;;;;19.23;8.05;;;;;;;1.65;66.16;97923.75;10272691;28;20409;-65
2024/01/17 11:43:31;;;;;;;18.20;8.38;;;;;;;1.77;65.46;97911.69;10276906;28;20053;-63
2024/01/17 11:48:35;;;;;;;16.60;8.07;;;;;;;1.67;66.25;97903.19;10273806;28;20153;-63
2024/01/17 11:53:40;;;;;;;22.77;8.93;;;;;;;1.83;65.66;97891.63;10275400;28;20930;-64
2024/01/17 11:58:50;;;;;;;16.38;8.10;;;;;;;2.01;66.08;97870.88;10273288;28;20051;-66
2024/01/17 12:03:52;;;;;;;20.25;9.05;;;;;;;2.10;66.10;97847.78;10272525;28;20050;-64
2024/01/17 12:08:54;;;;;;;22.73;9.38;;;;;;;2.20;66.40;97842.22;10251876;28;20042;-62
2024/01/17 12:13:55;;;;;;;18.02;8.75;;;;;;;2.20;66.76;97828.97;10277366;28;20429;-66
2024/01/17 12:18:58;;;;;;;19.95;10.00;;;;;;;2.26;66.37;97810.47;10276527;28;20495;-67
2024/01/17 12:24:00;;;;;;;20.67;8.80;;;;;;;2.37;66.53;97785.34;10273837;28;20062;-66
2024/01/17 12:29:06;;;;;;;19.20;8.88;;;;;;;2.37;66.61;97761.47;10273673;28;20082;-65
2024/01/17 12:34:09;;;;;;;16.67;8.38;;;;;;;2.38;67.13;97749.84;10268812;28;20364;-67
2024/01/17 12:39:12;;;;;;;19.17;8.30;;;;;;;2.34;67.07;97730.84;10272252;28;20178;-65
2024/01/17 12:44:15;;;;;;;18.85;8.35;;;;;;;2.38;67.71;97704.78;10275936;28;20057;-71
2024/01/17 12:49:17;;;;;;;18.75;9.63;;;;;;;2.52;67.08;97692.47;10279366;28;20046;-72
2024/01/17 12:54:19;;;;;;;17.38;8.20;;;;;;;2.52;67.24;97672.06;10282441;28;20059;-70
2024/01/17 12:59:21;;;;;;;21.10;9.13;;;;;;;2.61;67.09;97656.00;10283153;28;20059;-75
2024/01/17 13:04:23;;;;;;;14.50;7.35;;;;;;;2.32;68.27;97639.28;10284208;28;20086;-72
2024/01/17 13:09:29;;;;;;;17.73;8.35;;;;;;;2.07;68.98;97639.66;10287389;28;20046;-72
2024/01/17 13:14:32;;;;;;;16.42;8.38;;;;;;;2.16;68.44;97635.88;10287858;28;20501;-75
2024/01/17 13:19:33;;;;;;;21.50;9.65;;;;;;;2.17;68.81;97637.53;10289165;28;20078;-70
2024/01/17 13:24:35;;;;;;;20.17;8.55;;;;;;;2.12;68.70;97637.25;10280545;28;20113;-73
2024/01/17 13:29:36;;;;;;;18.48;9.50;;;;;;;2.02;68.97;97628.81;10284418;28;20050;-74
2024/01/17 13:34:39;;;;;;;19.45;9.45;;;;;;;2.09;68.78;97623.56;10284074;28;20059;-75
2024/01/17 13:39:41;;;;;;;19.35;9.60;;;;;;;2.22;69.00;97591.09;10284117;28;20043;-72
2024/01/17 13:44:42;;;;;;;21.98;10.95;;;;;;;2.23;68.82;97576.81;10288045;28;20054;-70
2024/01/17 13:49:46;;;;;;;19.88;9.30;;;;;;;2.22;68.87;97561.94;10283078;28;20047;-68
2024/01/17 13:54:50;;;;;;;22.05;10.93;;;;;;;2.23;69.04;97545.81;10285425;28;20500;-65
2024/01/17 13:59:51;;;;;;;17.52;9.13;;;;;;;2.31;69.13;97534.25;10289150;28;20055;-68
2024/01/17 14:04:53;;;;;;;22.27;10.23;;;;;;;2.22;69.31;97554.78;10270698;28;20047;-66
2024/01/17 14:09:54;;;;;;;20.77;10.18;;;;;;;2.34;69.22;97525.94;10285709;28;20042;-65
2024/01/17 14:14:56;;;;;;;23.15;10.00;;;;;;;2.29;69.78;97534.47;10277217;28;20047;-68
2024/01/17 14:19:58;;;;;;;19.38;9.43;;;;;;;2.24;70.02;97534.22;10278370;28;20089;-66
2024/01/17 14:24:59;;;;;;;22.90;9.77;;;;;;;2.28;69.99;97513.44;10278562;28;20057;-70
2024/01/17 14:30:03;;;;;;;25.38;10.40;;;;;;;2.31;70.23;97510.41;10304050;28;20050;-69
2024/01/17 14:35:07;;;;;;;21.08;9.90;;;;;;;2.27;70.29;97498.56;10303768;28;20125;-70
2024/01/17 14:40:09;;;;;;;19.83;9.75;;;;;;;2.21;70.57;97486.88;10302723;28;20059;-69
2024/01/17 14:45:11;;;;;;;20.38;11.00;;;;;;;2.30;71.00;97472.47;10261734;28;20051;-67
2024/01/17 14:50:14;;;;;;;21.98;10.25;;;;;;;2.35;70.88;97466.59;10262255;28;20390;-69
2024/01/17 14:55:16;;;;;;;18.92;10.32;;;;;;;2.42;71.13;97440.13;10276490;28;20141;-68
2024/01/17 15:00:18;;;;;;;23.45;11.00;;;;;;;2.41;71.08;97444.63;10280010;28;20042;-68
2024/01/17 15:05:23;;;;;;;30.05;12.48;;;;;;;2.33;71.67;97421.75;10273885;28;20053;-70
2024/01/17 15:10:25;;;;;;;19.65;10.52;;;;;;;2.37;71.91;97403.63;10278296;28;20053;-69
2024/01/17 15:15:26;;;;;;;25.33;12.10;;;;;;;2.49;71.70;97402.03;10260084;28;20444;-69
2024/01/17 15:20:28;;;;;;;19.90;10.77;;;;;;;2.53;71.91;97392.69;10276540;28;20047;-68
2024/01/17 15:25:29;;;;;;;21.20;10.32;;;;;;;2.54;72.12;97401.44;10277549;28;20454;-68
2024/01/17 15:30:31;;;;;;;25.30;11.82;;;;;;;2.27;73.65;97421.69;10260417;28;20050;-67
2024/01/17 15:35:33;;;;;;;20.42;10.18;;;;;;;2.40;73.16;97395.25;10277888;28;20078;-67
2024/01/17 15:40:43;;;;;;;22.92;10.95;;;;;;;2.40;73.34;97384.66;10276933;28;20414;-67
2024/01/17 15:45:45;;;;;;;24.30;10.23;;;;;;;2.51;73.31;97384.09;10280033;28;20050;-67
2024/01/17 15:50:47;;;;;;;24.65;11.15;;;;;;;2.61;73.75;97353.72;10284010;28;20050;-67
2024/01/17 15:55:48;;;;;;;23.98;11.27;;;;;;;2.61;73.66;97377.59;10282117;28;20405;-68
2024/01/17 16:00:50;;;;;;;25.40;10.93;;;;;;;2.49;73.86;97349.03;10276275;28;20058;-66
2024/01/17 16:05:52;;;;;;;25.35;10.70;;;;;;;2.60;73.87;97368.03;10283048;28;20122;-65
2024/01/17 16:10:53;;;;;;;21.80;10.45;;;;;;;2.55;74.21;97350.88;10276670;28;20509;-67
2024/01/17 16:15:55;;;;;;;25.38;10.05;;;;;;;2.47;74.69;97356.38;10277714;28;20987;-71
2024/01/17 16:20:56;;;;;;;30.65;12.40;;;;;;;2.64;74.29;97334.78;10269944;28;20043;-60
2024/01/17 16:25:58;;;;;;;25.83;11.70;;;;;;;2.62;74.78;97328.88;10276512;28;20636;-60
2024/01/17 16:31:01;;;;;;;21.38;11.00;;;;;;;2.71;74.79;97346.25;10275237;28;20042;-61
2024/01/17 16:36:03;;;;;;;23.13;10.95;;;;;;;2.70;74.92;97323.38;10267898;28;20065;-60
2024/01/17 16:41:05;;;;;;;25.95;11.90;;;;;;;2.48;75.45;97347.38;10270569;28;20170;-62
2024/01/17 16:46:07;;;;;;;75.95;29.15;;;;;;;2.71;75.45;97322.38;10273844;28;20525;-66
2024/01/17 16:51:08;;;;;;;34.03;15.70;;;;;;;2.82;75.14;97336.84;10272780;28;20047;-66
2024/01/17 16:56:10;;;;;;;25.25;11.23;;;;;;;2.64;75.63;97332.13;10273519;28;20058;-66
2024/01/17 17:01:11;;;;;;;23.55;10.45;;;;;;;2.75;75.71;97339.50;10273765;28;20050;-66
2024/01/17 17:06:13;;;;;;;24.63;10.73;;;;;;;2.76;75.90;97331.38;10275487;28;20065;-66
2024/01/17 17:11:14;;;;;;;26.52;11.85;;;;;;;2.74;76.10;97320.09;10274349;28;20117;-66
2024/01/17 17:16:18;;;;;;;26.80;11.57;;;;;;;2.80;75.66;97313.19;10275622;28;20057;-65
2024/01/17 17:21:20;;;;;;;29.92;12.55;;;;;;;2.81;75.94;97337.91;10270604;28;20519;-65
2024/01/17 17:26:21;;;;;;;25.27;10.80;;;;;;;2.85;76.14;97320.56;10273522;28;20450;-65
2024/01/17 17:31:23;;;;;;;28.30;12.07;;;;;;;2.81;76.05;97330.75;10278624;28;20481;-63
2024/01/17 17:36:25;;;;;;;24.73;12.82;;;;;;;2.87;76.33;97326.47;10283850;28;20046;-62
2024/01/17 17:41:26;;;;;;;26.42;11.02;;;;;;;2.97;76.06;97318.94;10268236;28;20482;-63
2024/01/17 17:46:27;;;;;;;29.75;12.35;;;;;;;2.93;76.39;97329.13;10289157;28;20536;-64
2024/01/17 17:51:29;;;;;;;24.80;11.95;;;;;;;2.98;75.99;97339.97;10279474;28;20054;-63
2024/01/17 17:56:31;;;;;;;28.80;12.20;;;;;;;3.00;76.13;97323.81;10276376;28;20058;-63
2024/01/17 18:01:32;;;;;;;23.60;11.30;;;;;;;3.05;76.11;97328.53;10281294;28;20050;-61
2024/01/17 18:06:34;;;;;;;28.83;12.75;;;;;;;3.11;75.80;97330.38;10280551;28;20046;-59
2024/01/17 18:11:36;;;;;;;21.92;11.52;;;;;;;3.14;76.27;97327.28;10277839;28;20729;-60
2024/01/17 18:16:37;;;;;;;31.48;14.35;;;;;;;3.17;76.10;97334.88;10281501;28;20062;-61
2024/01/17 18:21:39;;;;;;;27.95;12.60;;;;;;;3.06;76.36;97332.81;10279575;28;20051;-60
2024/01/17 18:26:40;;;;;;;30.10;12.35;;;;;;;3.12;76.57;97324.88;10279942;28;20078;-60
2024/01/17 18:31:42;;;;;;;25.85;12.20;;;;;;;3.12;76.54;97326.69;10279317;28;20046;-60
2024/01/17 18:36:44;;;;;;;28.90;12.95;;;;;;;3.08;76.89;97330.78;10282292;28;20149;-60
2024/01/17 18:41:45;;;;;;;30.83;14.30;;;;;;;3.10;76.95;97326.06;10276753;28;20058;-59
2024/01/17 18:46:48;;;;;;;26.88;12.35;;;;;;;3.03;77.48;97335.88;10279431;28;20047;-61
2024/01/17 18:51:49;;;;;;;27.45;11.57;;;;;;;3.07;77.10;97340.56;10279838;28;20046;-62
2024/01/17 18:56:51;;;;;;;22.33;11.07;;;;;;;3.12;77.01;97343.44;10279212;28;20097;-61
2024/01/17 19:01:52;;;;;;;23.38;10.32;;;;;;;3.13;77.10;97331.78;10275339;28;20038;-61
2024/01/17 19:06:54;;;;;;;24.92;11.68;;;;;;;3.23;76.61;97328.75;10275580;28;20129;-61
2024/01/17 19:11:55;;;;;;;27.13;11.30;;;;;;;3.26;76.89;97338.13;10273639;28;20438;-61
2024/01/17 19:16:57;;;;;;;22.38;9.88;;;;;;;3.24;77.29;97333.03;10279299;28;20110;-61
2024/01/17 19:21:58;;;;;;;21.02;9.63;;;;;;;3.25;77.44;97352.44;10277239;28;20066;-61
2024/01/17 19:26:59;;;;;;;17.77;8.48;;;;;;;3.12;78.11;97354.06;10281320;28;20067;-61
2024/01/17 19:32:01;;;;;;;23.15;10.35;;;;;;;3.17;77.73;97340.97;10277958;28;20078;-62
2024/01/17 19:37:04;;;;;;;18.30;8.13;;;;;;;3.21;77.88;97345.91;10278709;28;20057;-61
2024/01/17 19:42:05;;;;;;;18.60;8.70;;;;;;;3.19;77.86;97356.72;10274999;28;20051;-61
2024/01/17 19:47:08;;;;;;;18.45;9.35;;;;;;;3.22;77.80;97361.63;10280562;28;20506;-61
2024/01/17 19:52:11;;;;;;;21.08;9.45;;;;;;;3.14;78.12;97369.75;10277055;28;20054;-61
2024/01/17 19:57:13;;;;;;;21.70;9.13;;;;;;;3.09;78.29;97375.69;10275075;28;20053;-62
2024/01/17 20:02:14;;;;;;;22.25;11.18;;;;;;;3.11;77.91;97375.50;10250587;28;20600;-62
2024/01/17 20:07:16;;;;;;;22.73;10.98;;;;;;;3.13;78.21;97392.03;10277522;28;20535;-62
2024/01/17 20:12:21;;;;;;;25.02;10.18;;;;;;;3.11;77.98;97404.69;10277165;28;20047;-62
2024/01/17 20:17:24;;;;;;;29.42;11.35;;;;;;;3.06;78.39;97404.44;10275924;28;20070;-63
2024/01/17 20:22:26;;;;;;;21.58;10.98;;;;;;;3.05;78.11;97416.91;10276800;28;20050;-63
2024/01/17 20:27:28;;;;;;;24.50;10.60;;;;;;;3.00;78.25;97416.69;10278628;28;20051;-62
2024/01/17 20:32:29;;;;;;;23.42;10.07;;;;;;;3.01;78.13;97425.47;10278300;28;20074;-62
2024/01/17 20:37:31;;;;;;;23.77;9.95;;;;;;;2.98;78.47;97422.22;10277779;28;20043;-63
2024/01/17 20:42:32;;;;;;;23.65;11.25;;;;;;;2.94;78.58;97428.09;10276104;28;20050;-63
2024/01/17 20:47:34;;;;;;;21.48;9.68;;;;;;;2.88;78.70;97440.31;10280381;28;20413;-62
2024/01/17 20:52:36;;;;;;;27.38;10.32;;;;;;;2.88;78.88;97455.44;10280969;28;20462;-61
2024/01/17 20:57:37;;;;;;;24.00;10.13;;;;;;;2.92;78.85;97465.47;10273196;28;20055;-62
2024/01/17 21:02:39;;;;;;;23.00;9.10;;;;;;;3.01;79.07;97465.28;10274476;28;21135;-62
2024/01/17 21:07:41;;;;;;;18.40;8.55;;;;;;;3.05;78.81;97482.44;10280803;28;20051;-60
2024/01/17 21:12:42;;;;;;;23.90;10.15;;;;;;;3.15;78.56;97498.81;10286565;28;20035;-60
2024/01/17 21:17:44;;;;;;;20.77;10.20;;;;;;;3.17;78.58;97507.38;10286184;28;20053;-61
2024/01/17 21:22:45;;;;;;;17.75;9.30;;;;;;;3.20;78.49;97522.06;10284110;28;20057;-61
2024/01/17 21:27:47;;;;;;;19.50;9.48;;;;;;;3.04;79.07;97517.94;10278599;28;20097;-62
2024/01/17 21:32:49;;;;;;;17.13;7.88;;;;;;;2.96;79.17;97525.06;10269763;28;20153;-61
2024/01/17 21:37:51;;;;;;;15.50;7.85;;;;;;;2.88;79.61;97522.56;10279406;28;20098;-62
2024/01/17 21:42:53;;;;;;;17.60;7.60;;;;;;;2.97;79.22;97528.53;10279592;28;20055;-62
2024/01/17 21:47:54;;;;;;;23.88;10.40;;;;;;;2.96;79.69;97545.44;10274365;28;20567;-61
2024/01/17 21:52:56;;;;;;;21.40;9.13;;;;;;;3.03;79.15;97567.53;10272072;28;20803;-62
2024/01/17 21:57:57;;;;;;;20.15;8.07;;;;;;;2.93;79.59;97570.56;10275556;28;20189;-61
2024/01/17 22:02:58;;;;;;;18.85;7.97;;;;;;;2.92;79.43;97582.19;10277299;28;20062;-63
2024/01/17 22:08:00;;;;;;;17.23;7.60;;;;;;;2.83;79.71;97590.50;10278172;28;20055;-63
2024/01/17 22:13:02;;;;;;;18.92;7.50;;;;;;;2.75;79.89;97599.44;10278060;28;20057;-62
2024/01/17 22:18:04;;;;;;;20.20;8.05;;;;;;;2.76;79.80;97609.00;10282325;28;20061;-64
2024/01/17 22:23:05;;;;;;;16.55;7.97;;;;;;;2.74;80.12;97625.13;10280246;28;20126;-63
2024/01/17 22:28:08;;;;;;;18.23;8.48;;;;;;;2.66;80.14;97630.56;10273681;28;20069;-64
2024/01/17 22:33:09;;;;;;;25.05;10.02;;;;;;;2.65;79.75;97644.84;10279455;28;20047;-64
2024/01/17 22:38:11;;;;;;;19.23;7.70;;;;;;;2.58;80.29;97650.09;10275957;28;20043;-64
2024/01/17 22:43:12;;;;;;;20.33;7.88;;;;;;;2.62;80.01;97657.66;10274619;28;20069;-63
2024/01/17 22:48:14;;;;;;;17.90;7.38;;;;;;;2.61;80.08;97659.50;10272923;28;20057;-64
2024/01/17 22:53:15;;;;;;;18.58;7.93;;;;;;;2.52;80.65;97663.31;10274324;28;20399;-62
2024/01/17 22:58:17;;;;;;;18.17;7.78;;;;;;;2.53;80.33;97652.50;10276722;28;20058;-63
2024/01/17 23:03:18;;;;;;;14.55;7.05;;;;;;;2.57;80.19;97653.75;10273807;28;20644;-64
2024/01/17 23:08:20;;;;;;;14.38;6.35;;;;;;;2.58;80.70;97668.66;10275885;28;20054;-63
2024/01/17 23:13:22;;;;;;;14.85;6.68;;;;;;;2.62;80.31;97665.63;10275704;28;20469;-63
2024/01/17 23:18:26;;;;;;;15.77;6.13;;;;;;;2.60;79.94;97670.31;10275172;28;20158;-63